Mc Cool, Mississippi
Current Conditions -  °F | °C
As of 3:35 AM on Sunday 23 Nov 2014 (Local Time) from KSTF Reporting Station
Overcast Overcast  
Wind Chill: 14°   Ceiling: 1000
Heat Index: 14°   Visibility: NA
Dew Point: 12°   Wind: 14mph
Humidity: 88%   Direction: 130°SE
Pressure: 29.85"   Gusts: 20mph
Location:  33.1664°N, 89.3301°W
Report Text: KSTF 230935Z AUTO 13012G17KT OVC010 14/12 A2985 RMK AO2 PWINO
Loading
Personal Weather Stations






























Interactive Weather Map New forecast layout! Learn more

10-Day Weather Forecast

Advertisements
Track Severe Weather on mobile